Chestnut Grove, Alabama
Current Conditions -  °F | °C
As of 6:56 AM on Saturday 25 Oct 2014 (Local Time) from KSXS Reporting Station
Clear Clear  
Wind Chill: 47°   Ceiling: Unl
Heat Index: 49°   Visibility: 10mi
Dew Point: 44°   Wind: 5mph
Humidity: 84%   Direction: 340°NNW
Pressure: 30.09"   Gusts: NA
Location:  31.5584°N, 86.0569°W
Report Text: KSXS 251156Z AUTO 34004KT 10SM CLR 09/07 A3009 RMK AO2 SLP191 T00930068 10113 20090 52015
Loading
Personal Weather Stations






























Interactive Weather Map
Tropical Storm Tracking
New forecast layout! Learn more

10-Day Weather Forecast

Advertisements
Track Severe Weather on mobile